createdAt,value
2019-02-11T00:01:59.923Z,91.90
2019-02-11T00:04:30.267Z,92.00
2019-02-11T00:07:00.608Z,92.30
2019-02-11T00:09:30.950Z,92.40
2019-02-11T00:12:04.255Z,92.40
2019-02-11T00:14:34.595Z,92.40
2019-02-11T00:17:05.997Z,92.40
2019-02-11T00:19:36.322Z,92.50
2019-02-11T00:22:06.660Z,92.40
2019-02-11T00:24:36.986Z,92.30
2019-02-11T00:27:07.331Z,92.20
2019-02-11T00:29:37.669Z,92.20
2019-02-11T00:32:08.004Z,92.30
2019-02-11T00:34:38.329Z,92.30
2019-02-11T00:37:08.745Z,92.20
2019-02-11T00:39:39.081Z,92.30
2019-02-11T00:42:09.398Z,92.40
2019-02-11T00:44:39.730Z,92.30
2019-02-11T00:47:10.057Z,92.30
2019-02-11T00:49:40.399Z,92.10
2019-02-11T00:52:10.738Z,92.00
2019-02-11T00:54:41.079Z,91.70
2019-02-11T00:57:11.399Z,91.80
2019-02-11T00:59:41.741Z,92.20
2019-02-11T01:02:12.079Z,92.10
2019-02-11T01:04:42.415Z,91.90
2019-02-11T01:07:12.740Z,91.80
2019-02-11T01:09:43.096Z,91.70
2019-02-11T01:12:13.432Z,91.70
2019-02-11T01:14:43.771Z,91.70
2019-02-11T01:17:14.107Z,91.80
2019-02-11T01:19:44.431Z,91.80
2019-02-11T01:22:14.774Z,91.70
2019-02-11T01:24:45.099Z,91.70
2019-02-11T01:27:15.439Z,91.80
2019-02-11T01:29:45.773Z,91.90
2019-02-11T01:32:16.103Z,92.00
2019-02-11T01:34:46.456Z,92.00
2019-02-11T01:37:16.785Z,92.00
2019-02-11T01:39:47.129Z,92.00
2019-02-11T01:42:17.469Z,92.00
2019-02-11T01:44:47.861Z,92.00
2019-02-11T01:47:18.151Z,92.00
2019-02-11T01:49:48.494Z,92.20
2019-02-11T01:52:18.828Z,92.00
2019-02-11T01:54:49.182Z,91.90
2019-02-11T01:57:19.515Z,91.90
2019-02-11T01:59:49.865Z,91.80
2019-02-11T02:02:20.202Z,91.90
2019-02-11T02:04:50.554Z,92.00
2019-02-11T02:07:20.881Z,91.90
2019-02-11T02:09:51.233Z,91.90
2019-02-11T02:12:21.563Z,91.80
2019-02-11T02:14:51.944Z,91.70
2019-02-11T02:17:22.278Z,91.80
2019-02-11T02:19:54.753Z,91.70
2019-02-11T02:22:25.087Z,91.50
2019-02-11T02:24:55.434Z,91.50
2019-02-11T02:27:25.779Z,91.60
2019-02-11T02:29:56.115Z,91.50
2019-02-11T02:32:26.461Z,91.80
2019-02-11T02:34:56.786Z,91.80
2019-02-11T02:37:27.117Z,91.70
2019-02-11T02:39:57.443Z,91.60
2019-02-11T02:42:27.783Z,91.70
2019-02-11T02:44:58.117Z,91.80
2019-02-11T02:47:28.470Z,91.80
2019-02-11T02:49:58.802Z,91.80
2019-02-11T02:52:29.143Z,91.60
2019-02-11T02:54:59.477Z,91.60
2019-02-11T02:57:29.899Z,91.60
2019-02-11T03:00:00.434Z,91.50
2019-02-11T03:02:31.082Z,91.50
2019-02-11T03:05:02.340Z,91.50
2019-02-11T03:07:33.746Z,91.60
2019-02-11T03:10:06.536Z,91.40
2019-02-11T03:12:36.863Z,91.30
2019-02-11T03:15:12.040Z,91.40
2019-02-11T03:17:42.371Z,91.50
2019-02-11T03:20:12.771Z,91.40
2019-02-11T03:22:43.114Z,91.60
2019-02-11T03:25:13.439Z,91.50
2019-02-11T03:27:43.785Z,91.60
2019-02-11T03:30:14.118Z,91.60
2019-02-11T03:32:44.468Z,91.60
2019-02-11T03:35:14.796Z,91.70
2019-02-11T03:37:45.146Z,91.60
2019-02-11T03:40:15.470Z,91.70
2019-02-11T03:42:45.807Z,91.80
2019-02-11T03:45:17.433Z,91.90
2019-02-11T03:47:47.764Z,91.80
2019-02-11T03:50:18.414Z,92.20
2019-02-11T03:52:48.741Z,92.40
2019-02-11T03:55:19.134Z,92.10
2019-02-11T03:57:49.419Z,92.40
2019-02-11T04:00:19.847Z,91.90
2019-02-11T04:02:50.176Z,91.90
2019-02-11T04:05:20.678Z,92.00
2019-02-11T04:07:50.993Z,91.90
2019-02-11T04:10:21.342Z,92.00
2019-02-11T04:12:51.665Z,92.00
2019-02-11T04:15:22.005Z,92.30
2019-02-11T04:17:52.356Z,92.00
2019-02-11T04:20:22.698Z,92.00
2019-02-11T04:22:53.059Z,92.00
2019-02-11T04:25:23.404Z,92.10
2019-02-11T04:27:53.746Z,92.00
2019-02-11T04:30:24.097Z,92.10
2019-02-11T04:32:54.426Z,92.10
2019-02-11T04:35:24.777Z,92.10
2019-02-11T04:38:06.912Z,92.20
2019-02-11T04:40:37.238Z,92.30
2019-02-11T04:43:08.858Z,92.40
2019-02-11T04:45:39.278Z,92.50
2019-02-11T04:48:09.609Z,92.50
2019-02-11T04:50:39.958Z,92.40
2019-02-11T04:53:10.294Z,92.40
2019-02-11T04:55:40.641Z,92.40
2019-02-11T04:58:10.977Z,92.50
2019-02-11T05:00:42.295Z,92.50
2019-02-11T05:03:12.626Z,92.40
2019-02-11T05:05:42.980Z,92.30
2019-02-11T05:08:13.326Z,92.40
2019-02-11T05:10:43.671Z,92.60
2019-02-11T05:13:14.004Z,92.70
2019-02-11T05:15:44.351Z,92.90
2019-02-11T05:18:16.866Z,93.10
2019-02-11T05:20:46.878Z,93.00
2019-02-11T05:23:17.215Z,93.00
2019-02-11T05:25:47.557Z,92.80
2019-02-11T05:28:17.897Z,92.70
2019-02-11T05:31:00.594Z,92.60
2019-02-11T05:33:30.927Z,92.50
2019-02-11T05:36:01.269Z,92.50
2019-02-11T05:38:31.611Z,92.20
2019-02-11T05:41:01.994Z,92.00
2019-02-11T05:43:32.329Z,91.90
2019-02-11T05:46:02.683Z,92.00
2019-02-11T05:48:33.008Z,92.00
2019-02-11T05:51:03.358Z,92.00
2019-02-11T05:53:33.706Z,92.10
2019-02-11T05:56:04.048Z,92.00
2019-02-11T05:58:34.382Z,92.10
2019-02-11T06:01:04.730Z,92.10
2019-02-11T06:03:35.103Z,92.10
2019-02-11T06:06:05.458Z,92.20
2019-02-11T06:08:35.785Z,92.30
2019-02-11T06:11:06.137Z,92.30
2019-02-11T06:13:36.471Z,92.30
2019-02-11T06:16:06.804Z,92.30
2019-02-11T06:18:37.142Z,92.40
2019-02-11T06:21:07.478Z,92.60
2019-02-11T06:23:37.809Z,92.70
2019-02-11T06:26:08.144Z,92.70
2019-02-11T06:28:38.474Z,92.70
2019-02-11T06:31:09.064Z,92.70
2019-02-11T06:33:39.414Z,92.60
2019-02-11T06:36:12.307Z,92.70
2019-02-11T06:38:41.813Z,92.30
2019-02-11T06:41:13.112Z,92.40
2019-02-11T06:43:43.452Z,92.40
2019-02-11T06:46:13.800Z,92.50
2019-02-11T06:48:44.147Z,92.60
2019-02-11T06:51:14.492Z,92.40
2019-02-11T06:53:44.820Z,92.50
2019-02-11T06:56:15.170Z,92.50
2019-02-11T06:58:45.499Z,92.40
2019-02-11T07:01:15.834Z,92.50
2019-02-11T07:03:46.166Z,92.60
2019-02-11T07:06:16.504Z,92.60
2019-02-11T07:08:46.853Z,92.70
2019-02-11T07:11:17.184Z,92.70
2019-02-11T07:13:47.528Z,92.70
2019-02-11T07:16:17.872Z,92.80
2019-02-11T07:18:48.200Z,92.70
2019-02-11T07:21:18.532Z,92.60
2019-02-11T07:23:48.873Z,92.50
2019-02-11T07:26:19.213Z,92.60
2019-02-11T07:28:49.544Z,92.60
2019-02-11T07:31:19.894Z,92.60
2019-02-11T07:33:50.227Z,92.70
2019-02-11T07:36:20.562Z,92.60
2019-02-11T07:38:50.887Z,92.70
2019-02-11T07:41:22.880Z,92.60
2019-02-11T07:43:54.845Z,92.60
2019-02-11T07:46:29.543Z,92.60
2019-02-11T07:48:59.879Z,92.60
2019-02-11T07:51:30.211Z,92.60
2019-02-11T07:54:01.397Z,92.60
2019-02-11T07:56:31.723Z,92.60
2019-02-11T07:59:02.073Z,92.70
2019-02-11T08:01:32.401Z,92.70
2019-02-11T08:04:02.958Z,92.60
2019-02-11T08:06:33.297Z,92.60
2019-02-11T08:09:06.652Z,92.50
2019-02-11T08:11:37.002Z,92.60
2019-02-11T08:14:07.345Z,92.60
2019-02-11T08:16:37.683Z,92.50
2019-02-11T08:19:08.015Z,92.60
2019-02-11T08:21:38.355Z,92.70
2019-02-11T08:24:08.678Z,92.60
2019-02-11T08:26:39.025Z,92.50
2019-02-11T08:29:09.354Z,92.20
2019-02-11T08:31:39.698Z,92.00
2019-02-11T08:34:10.029Z,92.00
2019-02-11T08:36:40.368Z,92.10
2019-02-11T08:39:10.705Z,92.00
2019-02-11T08:41:41.042Z,92.00
2019-02-11T08:44:11.394Z,92.00
2019-02-11T08:46:41.755Z,91.90
2019-02-11T08:49:12.069Z,91.80
2019-02-11T08:51:42.401Z,91.60
2019-02-11T08:54:12.752Z,91.90
2019-02-11T08:56:43.096Z,90.80
2019-02-11T08:59:13.437Z,90.50
2019-02-11T09:01:43.799Z,90.50
2019-02-11T09:04:18.978Z,90.20
2019-02-11T09:06:47.164Z,90.10
2019-02-11T09:09:17.512Z,89.00
2019-02-11T09:11:47.844Z,87.90
2019-02-11T09:14:18.185Z,86.20
2019-02-11T09:16:48.602Z,86.90
2019-02-11T09:19:18.942Z,87.30
2019-02-11T09:21:49.299Z,87.30
2019-02-11T09:24:19.622Z,87.90
2019-02-11T09:26:49.970Z,89.30
2019-02-11T09:29:20.314Z,88.50
2019-02-11T09:31:50.657Z,89.10
2019-02-11T09:34:21.001Z,89.70
2019-02-11T09:36:51.385Z,89.30
2019-02-11T09:39:23.334Z,90.00
2019-02-11T09:41:53.754Z,90.20
2019-02-11T09:44:29.704Z,90.10
2019-02-11T09:46:56.583Z,90.60
2019-02-11T09:49:26.960Z,90.20
2019-02-11T09:51:57.327Z,89.80
2019-02-11T09:54:27.661Z,89.90
2019-02-11T09:56:58.007Z,90.10
2019-02-11T09:59:28.339Z,90.30
2019-02-11T10:01:58.696Z,90.60
2019-02-11T10:04:29.038Z,90.70
2019-02-11T10:06:59.383Z,90.70
2019-02-11T10:09:37.691Z,90.80
2019-02-11T10:12:08.049Z,91.20
2019-02-11T10:14:38.388Z,91.90
2019-02-11T10:17:08.718Z,91.60
2019-02-11T10:19:40.053Z,91.80
2019-02-11T10:22:10.369Z,91.60
2019-02-11T10:24:40.755Z,91.60
2019-02-11T10:27:11.094Z,91.10
2019-02-11T10:29:41.444Z,90.50
2019-02-11T10:32:11.866Z,86.80
2019-02-11T10:34:42.380Z,87.40
2019-02-11T10:37:12.711Z,83.90
2019-02-11T10:39:43.064Z,82.80
2019-02-11T10:42:13.401Z,82.60
2019-02-11T10:44:43.765Z,82.00
2019-02-11T10:47:15.177Z,84.70
2019-02-11T10:49:45.528Z,82.00
2019-02-11T10:52:15.933Z,84.50
2019-02-11T10:54:46.283Z,84.00
2019-02-11T10:57:16.703Z,83.80
2019-02-11T10:59:47.057Z,82.20
2019-02-11T11:02:17.393Z,78.40
2019-02-11T11:04:47.744Z,81.10
2019-02-11T11:07:18.152Z,81.60
2019-02-11T11:09:48.491Z,80.50
2019-02-11T11:12:19.395Z,81.50
2019-02-11T11:14:49.740Z,81.90
2019-02-11T11:17:20.100Z,80.10
2019-02-11T11:19:50.471Z,77.50
2019-02-11T11:22:20.777Z,76.90
2019-02-11T11:24:51.125Z,76.90
2019-02-11T11:27:21.704Z,70.60
2019-02-11T11:29:52.046Z,74.40
2019-02-11T11:32:22.387Z,75.70
2019-02-11T11:34:52.795Z,73.60
2019-02-11T11:37:23.145Z,68.20
2019-02-11T11:39:53.720Z,67.10
2019-02-11T11:42:24.065Z,66.90
2019-02-11T11:44:54.407Z,66.00
2019-02-11T11:47:24.749Z,66.20
2019-02-11T11:49:55.102Z,70.70
2019-02-11T11:52:25.455Z,72.10
2019-02-11T11:54:55.933Z,68.40
2019-02-11T11:57:26.327Z,67.80
2019-02-11T11:59:56.766Z,66.30
2019-02-11T12:02:27.146Z,65.70
2019-02-11T12:04:57.505Z,65.60
2019-02-11T12:07:27.860Z,64.60
2019-02-11T12:09:58.201Z,64.10
2019-02-11T12:12:29.385Z,66.20
2019-02-11T12:14:59.783Z,61.20
2019-02-11T12:17:31.405Z,60.70
2019-02-11T12:20:01.794Z,61.10
2019-02-11T12:22:32.084Z,59.80
2019-02-11T12:25:02.443Z,59.20
2019-02-11T12:27:32.777Z,61.40
2019-02-11T12:30:03.321Z,60.50
2019-02-11T12:32:34.717Z,59.10
2019-02-11T12:35:10.552Z,61.30
2019-02-11T12:37:42.510Z,60.00
2019-02-11T12:40:13.406Z,60.10
2019-02-11T12:42:43.903Z,60.90
2019-02-11T12:45:20.811Z,60.10
2019-02-11T12:47:51.154Z,58.40
2019-02-11T12:50:21.525Z,60.60
2019-02-11T12:52:51.856Z,59.80
2019-02-11T12:55:22.219Z,59.70
2019-02-11T12:57:52.595Z,60.90
2019-02-11T13:00:26.234Z,61.80
2019-02-11T13:02:56.556Z,62.00
2019-02-11T13:05:43.939Z,62.00
2019-02-11T13:07:58.965Z,60.10
2019-02-11T13:10:29.990Z,59.60
2019-02-11T13:13:00.496Z,61.20
2019-02-11T13:15:56.437Z,63.00
2019-02-11T13:18:02.905Z,64.10
2019-02-11T13:20:33.598Z,59.90
2019-02-11T13:23:03.968Z,62.00
2019-02-11T13:25:34.337Z,63.60
2019-02-11T13:28:04.662Z,63.80
2019-02-11T13:30:34.983Z,61.20
2019-02-11T13:33:05.351Z,62.80
2019-02-11T13:35:35.672Z,59.40
2019-02-11T13:38:06.102Z,60.30
2019-02-11T13:40:36.433Z,59.50
2019-02-11T13:43:06.952Z,59.80
2019-02-11T13:45:37.698Z,60.60
2019-02-11T13:48:08.041Z,61.30
2019-02-11T13:50:38.514Z,61.50
2019-02-11T13:53:08.940Z,62.50
2019-02-11T13:55:39.269Z,63.10
2019-02-11T13:58:09.650Z,62.00
2019-02-11T14:00:41.403Z,60.50
2019-02-11T14:03:11.925Z,61.20
2019-02-11T14:05:42.410Z,57.40
2019-02-11T14:08:24.780Z,58.20
2019-02-11T14:10:55.128Z,60.60
2019-02-11T14:13:25.477Z,60.00
2019-02-11T14:15:55.830Z,61.70
2019-02-11T14:18:26.160Z,60.60
2019-02-11T14:20:56.495Z,62.00
2019-02-11T14:23:26.843Z,60.50
2019-02-11T14:25:57.194Z,59.50
2019-02-11T14:28:27.529Z,60.20
2019-02-11T14:30:57.952Z,59.40
2019-02-11T14:33:28.353Z,60.10
2019-02-11T14:35:59.145Z,61.20
2019-02-11T14:38:29.554Z,63.10
2019-02-11T14:40:59.978Z,62.80
2019-02-11T14:43:30.422Z,64.00
2019-02-11T14:46:00.821Z,62.20
2019-02-11T14:48:31.183Z,61.20
2019-02-11T14:51:01.596Z,62.20
2019-02-11T14:53:32.008Z,61.50
2019-02-11T14:56:02.477Z,62.30
2019-02-11T14:58:32.922Z,63.00
2019-02-11T15:01:04.800Z,61.40
2019-02-11T15:03:36.138Z,62.10
2019-02-11T15:06:06.809Z,61.40
2019-02-11T15:08:37.155Z,63.20
2019-02-11T15:11:07.510Z,63.00
2019-02-11T15:13:37.847Z,61.00
2019-02-11T15:16:08.200Z,62.10
2019-02-11T15:18:38.527Z,62.60
2019-02-11T15:21:08.880Z,61.40
2019-02-11T15:23:39.256Z,60.80
2019-02-11T15:26:09.621Z,61.10
2019-02-11T15:28:39.961Z,61.20
2019-02-11T15:31:10.307Z,61.70
2019-02-11T15:33:40.674Z,63.00
2019-02-11T15:36:11.030Z,63.10
2019-02-11T15:38:41.365Z,64.60
2019-02-11T15:41:11.705Z,65.40
2019-02-11T15:43:42.035Z,66.20
2019-02-11T15:46:12.378Z,66.40
2019-02-11T15:48:43.415Z,67.30
2019-02-11T15:51:13.859Z,68.50
2019-02-11T15:53:44.202Z,68.60
2019-02-11T15:56:14.542Z,68.30
2019-02-11T15:58:44.881Z,66.70
2019-02-11T16:01:15.218Z,67.60
2019-02-11T16:03:45.569Z,66.90
2019-02-11T16:06:15.904Z,66.80
2019-02-11T16:08:46.254Z,65.80
2019-02-11T16:11:16.590Z,65.10
2019-02-11T16:13:46.962Z,65.50
2019-02-11T16:16:17.279Z,65.70
2019-02-11T16:18:51.765Z,65.50
2019-02-11T16:21:19.684Z,66.50
2019-02-11T16:23:50.343Z,67.10
2019-02-11T16:26:20.701Z,67.50
2019-02-11T16:28:51.039Z,68.10
2019-02-11T16:31:21.394Z,68.50
2019-02-11T16:33:51.730Z,68.60
2019-02-11T16:36:22.086Z,69.10
2019-02-11T16:38:52.416Z,69.40
2019-02-11T16:41:22.756Z,70.00
2019-02-11T16:43:53.119Z,70.50
2019-02-11T16:46:23.462Z,71.10
2019-02-11T16:49:00.351Z,71.80
2019-02-11T16:51:25.858Z,72.30
2019-02-11T16:53:56.194Z,72.80
2019-02-11T16:56:26.651Z,73.80
2019-02-11T16:58:56.985Z,74.30
2019-02-11T17:01:28.304Z,74.50
2019-02-11T17:03:58.647Z,74.70
2019-02-11T17:06:28.993Z,75.30
2019-02-11T17:08:59.335Z,75.50
2019-02-11T17:11:29.687Z,75.80
2019-02-11T17:14:00.307Z,76.20
2019-02-11T17:16:30.638Z,76.60
2019-02-11T17:19:08.866Z,77.10
2019-02-11T17:21:33.031Z,77.40
2019-02-11T17:24:03.373Z,77.80
2019-02-11T17:26:33.736Z,78.20
2019-02-11T17:29:05.619Z,78.60
2019-02-11T17:31:37.024Z,79.00
2019-02-11T17:34:07.357Z,79.10
2019-02-11T17:36:37.712Z,79.30
2019-02-11T17:39:08.388Z,79.80
2019-02-11T17:41:38.880Z,80.00
2019-02-11T17:44:09.208Z,80.20
2019-02-11T17:46:39.583Z,80.40
2019-02-11T17:49:17.458Z,80.60
2019-02-11T17:51:41.956Z,81.00
2019-02-11T17:54:12.303Z,81.10
2019-02-11T17:56:42.648Z,81.30
2019-02-11T17:59:13.002Z,81.50
2019-02-11T18:01:43.392Z,81.70
2019-02-11T18:04:15.719Z,81.80
2019-02-11T18:06:46.064Z,82.00
2019-02-11T18:09:16.578Z,82.30
2019-02-11T18:11:46.943Z,82.50
2019-02-11T18:14:17.275Z,82.90
2019-02-11T18:16:47.613Z,83.00
2019-02-11T18:19:25.783Z,83.20
2019-02-11T18:21:49.980Z,83.30
2019-02-11T18:24:20.323Z,83.50
2019-02-11T18:26:50.649Z,83.70
2019-02-11T18:29:21.004Z,83.90
2019-02-11T18:31:51.336Z,83.80
2019-02-11T18:34:21.739Z,83.90
2019-02-11T18:36:52.075Z,85.10
2019-02-11T18:39:22.407Z,84.40
2019-02-11T18:41:52.743Z,84.50
2019-02-11T18:44:23.091Z,85.40
2019-02-11T18:46:53.439Z,84.90
2019-02-11T18:49:23.772Z,85.10
2019-02-11T18:51:54.106Z,85.00
2019-02-11T18:54:24.451Z,85.40
2019-02-11T18:56:54.809Z,85.50
2019-02-11T18:59:25.148Z,85.70
2019-02-11T19:01:55.495Z,85.90
2019-02-11T19:04:25.822Z,86.00
2019-02-11T19:06:56.165Z,85.90
2019-02-11T19:09:26.495Z,86.10
2019-02-11T19:11:56.861Z,86.20
2019-02-11T19:14:27.186Z,86.50
2019-02-11T19:16:57.572Z,86.60
2019-02-11T19:19:28.714Z,86.70
2019-02-11T19:22:00.451Z,86.80
2019-02-11T19:24:30.764Z,86.70
2019-02-11T19:27:01.273Z,87.00
2019-02-11T19:29:31.600Z,87.30
2019-02-11T19:32:01.947Z,87.40
2019-02-11T19:34:32.268Z,87.20
2019-02-11T19:37:02.620Z,87.10
2019-02-11T19:39:33.126Z,87.20
2019-02-11T19:42:03.468Z,87.50
2019-02-11T19:44:33.818Z,87.60
2019-02-11T19:47:05.712Z,87.60
2019-02-11T19:49:36.070Z,87.90
2019-02-11T19:52:06.491Z,87.90
2019-02-11T19:54:37.127Z,88.00
2019-02-11T19:57:08.560Z,88.10
2019-02-11T19:59:39.148Z,88.10
2019-02-11T20:02:09.496Z,88.30
2019-02-11T20:04:39.870Z,88.20
2019-02-11T20:07:10.471Z,88.10
2019-02-11T20:09:40.823Z,88.30
2019-02-11T20:12:11.160Z,88.70
2019-02-11T20:14:41.505Z,88.50
2019-02-11T20:17:11.849Z,89.10
2019-02-11T20:19:42.175Z,88.70
2019-02-11T20:22:12.538Z,88.70
2019-02-11T20:24:42.873Z,89.20
2019-02-11T20:27:15.318Z,89.20
2019-02-11T20:29:45.648Z,89.00
2019-02-11T20:32:15.994Z,89.20
2019-02-11T20:34:46.331Z,89.60
2019-02-11T20:37:16.668Z,89.70
2019-02-11T20:39:46.999Z,89.70
2019-02-11T20:42:17.415Z,89.90
2019-02-11T20:44:47.749Z,89.80
2019-02-11T20:47:18.094Z,89.80
2019-02-11T20:49:48.420Z,90.00
2019-02-11T20:52:18.763Z,89.80
2019-02-11T20:54:49.099Z,89.80
2019-02-11T20:57:19.442Z,90.00
2019-02-11T20:59:50.850Z,90.10
2019-02-11T21:02:21.192Z,90.30
2019-02-11T21:04:51.533Z,90.10
2019-02-11T21:07:21.872Z,90.10
2019-02-11T21:09:52.221Z,90.20
2019-02-11T21:12:22.565Z,90.20
2019-02-11T21:15:07.081Z,90.40
2019-02-11T21:17:37.488Z,90.30
2019-02-11T21:20:17.649Z,90.60
2019-02-11T21:22:44.543Z,90.40
2019-02-11T21:25:16.822Z,90.40
2019-02-11T21:27:47.412Z,90.40
2019-02-11T21:30:17.941Z,90.50
2019-02-11T21:32:48.289Z,90.40
2019-02-11T21:35:18.615Z,90.70
2019-02-11T21:37:49.582Z,90.60
2019-02-11T21:40:19.897Z,90.60
2019-02-11T21:42:50.231Z,90.60
2019-02-11T21:45:20.562Z,90.60
2019-02-11T21:47:50.923Z,90.80
2019-02-11T21:50:26.762Z,90.70
2019-02-11T21:52:55.204Z,91.00
2019-02-11T21:55:26.574Z,90.60
2019-02-11T21:57:56.914Z,90.60
2019-02-11T22:00:27.245Z,90.60
2019-02-11T22:02:57.603Z,90.50
2019-02-11T22:05:27.943Z,90.60
2019-02-11T22:07:58.276Z,90.70
2019-02-11T22:10:28.614Z,90.80
2019-02-11T22:12:58.957Z,90.70
2019-02-11T22:15:29.325Z,90.70
2019-02-11T22:17:59.672Z,90.70
2019-02-11T22:20:34.741Z,90.70
2019-02-11T22:23:05.713Z,90.70
2019-02-11T22:25:36.041Z,90.70
2019-02-11T22:28:06.380Z,91.00
2019-02-11T22:30:37.081Z,91.00
2019-02-11T22:33:07.421Z,91.00
2019-02-11T22:35:37.755Z,91.00
2019-02-11T22:38:08.094Z,91.10
2019-02-11T22:40:38.438Z,91.10
2019-02-11T22:43:08.799Z,91.20
2019-02-11T22:45:39.151Z,91.10
2019-02-11T22:48:09.492Z,90.90
2019-02-11T22:50:43.116Z,90.80
2019-02-11T22:53:11.878Z,90.70
2019-02-11T22:55:42.212Z,90.70
2019-02-11T22:58:12.562Z,90.70
2019-02-11T23:00:47.768Z,90.60
2019-02-11T23:03:18.295Z,90.60
2019-02-11T23:06:00.910Z,90.60
2019-02-11T23:08:31.255Z,90.60
2019-02-11T23:11:01.689Z,90.50
2019-02-11T23:13:32.042Z,90.50
2019-02-11T23:16:02.443Z,90.60
2019-02-11T23:18:32.796Z,90.60
2019-02-11T23:21:03.119Z,90.60
2019-02-11T23:23:33.668Z,91.00
2019-02-11T23:26:03.991Z,91.30
2019-02-11T23:28:34.336Z,91.30
2019-02-11T23:31:04.732Z,91.60
2019-02-11T23:33:35.069Z,91.70
2019-02-11T23:36:05.415Z,91.80
2019-02-11T23:38:35.769Z,91.80
2019-02-11T23:41:06.094Z,91.70
2019-02-11T23:43:36.437Z,91.70
2019-02-11T23:46:06.849Z,91.50
2019-02-11T23:48:37.189Z,91.40
2019-02-11T23:51:07.526Z,91.30
2019-02-11T23:53:37.862Z,91.30
2019-02-11T23:56:08.207Z,91.20
2019-02-11T23:58:38.678Z,91.20
